aviador You're here:

KLKR Decoded Metar

LANCASTER in SC, USA
Report Time2017-11-24 08:55:00
UTC Time2017-11-24 09:01:33
Flight Rules vfr VFR
WindCalm
Visibility9656 m
Phenomena:Mist
Clouds:N/A
CeilingNone
Temp-2°C (ISA -16)
Dew Point-2°C (100% RH)
AAT-4.3°C
QNH1018 hPa
Density Alt-1,575 ft
Elevation489 ft
Report Wrong Elevation
Raw Report
METAR KLKR 240855Z AUTO 00000KT 6SM BR CLR M02/M02 A3005 RMK AO2=

Extra information for KLKR:More info

Metar Taf Metar & Taf Last 4 Metars F.Rules Stats Wind Profile Meteogram Temp Stats Airport Information Weather charts Add Link Nearby VenuesMetar ALERT Operation Metar Decoded Social comments

AIRNAV info for KLKR